sensor_id;sensor_type;location;lat;lon;timestamp;temperature;humidity
30381;DHT22;17169;50.966;11.038;2023-04-03T00:02:50;3.60;99.90
30381;DHT22;17169;50.966;11.038;2023-04-03T00:05:52;3.60;99.90
30381;DHT22;17169;50.966;11.038;2023-04-03T00:08:55;3.70;99.90
30381;DHT22;17169;50.966;11.038;2023-04-03T00:11:58;3.70;99.90
30381;DHT22;17169;50.966;11.038;2023-04-03T00:15:01;3.70;99.90
30381;DHT22;17169;50.966;11.038;2023-04-03T00:18:03;3.70;99.90
30381;DHT22;17169;50.966;11.038;2023-04-03T00:21:06;3.70;99.90
30381;DHT22;17169;50.966;11.038;2023-04-03T00:24:09;3.70;99.90
30381;DHT22;17169;50.966;11.038;2023-04-03T00:27:12;3.70;99.90
30381;DHT22;17169;50.966;11.038;2023-04-03T00:30:18;3.70;99.90
30381;DHT22;17169;50.966;11.038;2023-04-03T00:33:21;3.80;99.90
30381;DHT22;17169;50.966;11.038;2023-04-03T00:36:25;3.70;99.90
30381;DHT22;17169;50.966;11.038;2023-04-03T00:39:28;3.70;99.90
30381;DHT22;17169;50.966;11.038;2023-04-03T00:42:31;3.70;99.90
30381;DHT22;17169;50.966;11.038;2023-04-03T00:45:35;3.60;99.90
30381;DHT22;17169;50.966;11.038;2023-04-03T00:48:40;3.60;99.90
30381;DHT22;17169;50.966;11.038;2023-04-03T00:51:43;3.50;99.90
30381;DHT22;17169;50.966;11.038;2023-04-03T00:54:47;3.50;99.90
30381;DHT22;17169;50.966;11.038;2023-04-03T00:57:52;3.40;99.90
30381;DHT22;17169;50.966;11.038;2023-04-03T01:00:58;3.30;99.90
30381;DHT22;17169;50.966;11.038;2023-04-03T01:04:01;3.20;99.90
30381;DHT22;17169;50.966;11.038;2023-04-03T01:07:06;3.20;99.90
30381;DHT22;17169;50.966;11.038;2023-04-03T01:10:12;3.10;99.90
30381;DHT22;17169;50.966;11.038;2023-04-03T01:13:24;3.00;99.90
30381;DHT22;17169;50.966;11.038;2023-04-03T01:16:27;3.00;99.90
30381;DHT22;17169;50.966;11.038;2023-04-03T01:19:31;3.00;99.90
30381;DHT22;17169;50.966;11.038;2023-04-03T01:22:43;3.00;99.90
30381;DHT22;17169;50.966;11.038;2023-04-03T01:25:50;2.90;99.90
30381;DHT22;17169;50.966;11.038;2023-04-03T01:28:55;2.80;99.90
30381;DHT22;17169;50.966;11.038;2023-04-03T01:32:00;2.70;99.90
30381;DHT22;17169;50.966;11.038;2023-04-03T01:35:03;2.60;99.90
30381;DHT22;17169;50.966;11.038;2023-04-03T01:38:06;2.60;99.90
30381;DHT22;17169;50.966;11.038;2023-04-03T01:41:08;2.50;99.90
30381;DHT22;17169;50.966;11.038;2023-04-03T01:44:11;2.60;99.90
30381;DHT22;17169;50.966;11.038;2023-04-03T01:47:15;2.60;99.90
30381;DHT22;17169;50.966;11.038;2023-04-03T01:50:17;2.60;99.90
30381;DHT22;17169;50.966;11.038;2023-04-03T01:53:20;2.60;99.90
30381;DHT22;17169;50.966;11.038;2023-04-03T01:56:22;2.60;99.90
30381;DHT22;17169;50.966;11.038;2023-04-03T01:59:24;2.60;99.90
30381;DHT22;17169;50.966;11.038;2023-04-03T02:02:28;2.60;99.90
30381;DHT22;17169;50.966;11.038;2023-04-03T02:05:31;2.60;99.90
30381;DHT22;17169;50.966;11.038;2023-04-03T02:08:33;2.60;99.90
30381;DHT22;17169;50.966;11.038;2023-04-03T02:11:35;2.70;99.90
30381;DHT22;17169;50.966;11.038;2023-04-03T02:14:38;2.60;99.90
30381;DHT22;17169;50.966;11.038;2023-04-03T02:17:41;2.60;99.90
30381;DHT22;17169;50.966;11.038;2023-04-03T02:20:44;2.60;99.90
30381;DHT22;17169;50.966;11.038;2023-04-03T02:23:46;2.70;99.90
30381;DHT22;17169;50.966;11.038;2023-04-03T02:26:48;2.80;99.90
30381;DHT22;17169;50.966;11.038;2023-04-03T02:29:51;2.80;99.90
30381;DHT22;17169;50.966;11.038;2023-04-03T02:32:54;2.80;99.90
30381;DHT22;17169;50.966;11.038;2023-04-03T02:35:58;2.80;99.90
30381;DHT22;17169;50.966;11.038;2023-04-03T02:39:01;2.90;99.90
30381;DHT22;17169;50.966;11.038;2023-04-03T02:42:04;2.90;99.90
30381;DHT22;17169;50.966;11.038;2023-04-03T02:45:07;3.00;99.90
30381;DHT22;17169;50.966;11.038;2023-04-03T02:48:10;3.00;99.90
30381;DHT22;17169;50.966;11.038;2023-04-03T02:51:13;3.00;99.90
30381;DHT22;17169;50.966;11.038;2023-04-03T02:54:15;3.00;99.90
30381;DHT22;17169;50.966;11.038;2023-04-03T02:57:17;3.10;99.90
30381;DHT22;17169;50.966;11.038;2023-04-03T03:00:20;3.10;99.90
30381;DHT22;17169;50.966;11.038;2023-04-03T03:03:24;3.20;99.90
30381;DHT22;17169;50.966;11.038;2023-04-03T03:06:27;3.10;99.90
30381;DHT22;17169;50.966;11.038;2023-04-03T03:09:29;3.10;99.90
30381;DHT22;17169;50.966;11.038;2023-04-03T03:12:31;3.10;99.90
30381;DHT22;17169;50.966;11.038;2023-04-03T03:15:34;3.10;99.90
30381;DHT22;17169;50.966;11.038;2023-04-03T03:18:37;3.00;99.90
30381;DHT22;17169;50.966;11.038;2023-04-03T03:21:40;3.00;99.90
30381;DHT22;17169;50.966;11.038;2023-04-03T03:24:42;2.90;99.90
30381;DHT22;17169;50.966;11.038;2023-04-03T03:27:44;2.90;99.90
30381;DHT22;17169;50.966;11.038;2023-04-03T03:30:47;2.90;99.90
30381;DHT22;17169;50.966;11.038;2023-04-03T03:33:50;2.80;99.90
30381;DHT22;17169;50.966;11.038;2023-04-03T03:36:53;2.80;99.90
30381;DHT22;17169;50.966;11.038;2023-04-03T03:39:56;2.80;99.90
30381;DHT22;17169;50.966;11.038;2023-04-03T03:42:58;2.80;99.90
30381;DHT22;17169;50.966;11.038;2023-04-03T03:46:00;2.70;99.90
30381;DHT22;17169;50.966;11.038;2023-04-03T03:49:04;2.70;99.90
30381;DHT22;17169;50.966;11.038;2023-04-03T03:52:06;2.70;99.90
30381;DHT22;17169;50.966;11.038;2023-04-03T03:55:11;2.60;99.90
30381;DHT22;17169;50.966;11.038;2023-04-03T03:58:13;2.70;99.90
30381;DHT22;17169;50.966;11.038;2023-04-03T04:01:16;2.60;99.90
30381;DHT22;17169;50.966;11.038;2023-04-03T04:04:20;2.60;99.90
30381;DHT22;17169;50.966;11.038;2023-04-03T04:07:22;2.60;99.90
30381;DHT22;17169;50.966;11.038;2023-04-03T04:10:25;2.60;99.90
30381;DHT22;17169;50.966;11.038;2023-04-03T04:13:27;2.60;99.90
30381;DHT22;17169;50.966;11.038;2023-04-03T04:16:30;2.60;99.90
30381;DHT22;17169;50.966;11.038;2023-04-03T04:19:33;2.50;99.90
30381;DHT22;17169;50.966;11.038;2023-04-03T04:22:36;2.40;99.90
30381;DHT22;17169;50.966;11.038;2023-04-03T04:25:38;2.40;99.90
30381;DHT22;17169;50.966;11.038;2023-04-03T04:28:41;2.40;99.90
30381;DHT22;17169;50.966;11.038;2023-04-03T04:31:43;2.40;99.90
30381;DHT22;17169;50.966;11.038;2023-04-03T04:34:47;2.40;99.90
30381;DHT22;17169;50.966;11.038;2023-04-03T04:37:49;2.40;99.90
30381;DHT22;17169;50.966;11.038;2023-04-03T04:40:52;2.40;99.90
30381;DHT22;17169;50.966;11.038;2023-04-03T04:43:54;2.30;99.90
30381;DHT22;17169;50.966;11.038;2023-04-03T04:46:56;2.30;99.90
30381;DHT22;17169;50.966;11.038;2023-04-03T04:50:00;2.30;99.90
30381;DHT22;17169;50.966;11.038;2023-04-03T04:53:02;2.30;99.90
30381;DHT22;17169;50.966;11.038;2023-04-03T04:56:05;2.20;99.90
30381;DHT22;17169;50.966;11.038;2023-04-03T04:59:08;2.20;99.90
30381;DHT22;17169;50.966;11.038;2023-04-03T05:02:10;2.20;99.90
30381;DHT22;17169;50.966;11.038;2023-04-03T05:05:14;2.20;99.90
30381;DHT22;17169;50.966;11.038;2023-04-03T05:08:16;2.20;99.90
30381;DHT22;17169;50.966;11.038;2023-04-03T05:11:19;2.10;99.90
30381;DHT22;17169;50.966;11.038;2023-04-03T05:14:21;2.10;99.90
30381;DHT22;17169;50.966;11.038;2023-04-03T05:17:24;2.10;99.90
30381;DHT22;17169;50.966;11.038;2023-04-03T05:20:27;2.10;99.90
30381;DHT22;17169;50.966;11.038;2023-04-03T05:23:30;2.00;99.90
30381;DHT22;17169;50.966;11.038;2023-04-03T05:26:32;1.90;99.90
30381;DHT22;17169;50.966;11.038;2023-04-03T05:29:34;1.90;99.90
30381;DHT22;17169;50.966;11.038;2023-04-03T05:32:37;1.80;99.90
30381;DHT22;17169;50.966;11.038;2023-04-03T05:35:40;1.70;99.90
30381;DHT22;17169;50.966;11.038;2023-04-03T05:38:45;1.60;99.90
30381;DHT22;17169;50.966;11.038;2023-04-03T05:41:47;1.60;99.90
30381;DHT22;17169;50.966;11.038;2023-04-03T05:44:49;1.60;99.90
30381;DHT22;17169;50.966;11.038;2023-04-03T05:47:52;1.60;99.90
30381;DHT22;17169;50.966;11.038;2023-04-03T05:50:55;1.70;99.90
30381;DHT22;17169;50.966;11.038;2023-04-03T05:54:02;1.60;99.90
30381;DHT22;17169;50.966;11.038;2023-04-03T05:57:06;1.70;99.90
30381;DHT22;17169;50.966;11.038;2023-04-03T06:00:12;1.70;99.90
30381;DHT22;17169;50.966;11.038;2023-04-03T06:03:16;1.70;99.90
30381;DHT22;17169;50.966;11.038;2023-04-03T06:06:20;1.80;99.90
30381;DHT22;17169;50.966;11.038;2023-04-03T06:09:24;1.80;99.90
30381;DHT22;17169;50.966;11.038;2023-04-03T06:12:26;1.80;99.90
30381;DHT22;17169;50.966;11.038;2023-04-03T06:15:29;1.80;99.90
30381;DHT22;17169;50.966;11.038;2023-04-03T06:18:32;1.80;99.90
30381;DHT22;17169;50.966;11.038;2023-04-03T06:21:36;1.90;99.90
30381;DHT22;17169;50.966;11.038;2023-04-03T06:24:38;1.90;99.90
30381;DHT22;17169;50.966;11.038;2023-04-03T06:27:41;1.90;99.90
30381;DHT22;17169;50.966;11.038;2023-04-03T06:30:43;1.90;99.90
30381;DHT22;17169;50.966;11.038;2023-04-03T06:33:45;1.90;99.90
30381;DHT22;17169;50.966;11.038;2023-04-03T06:36:49;2.00;99.90
30381;DHT22;17169;50.966;11.038;2023-04-03T06:39:52;2.00;99.90
30381;DHT22;17169;50.966;11.038;2023-04-03T06:42:54;2.00;99.90
30381;DHT22;17169;50.966;11.038;2023-04-03T06:45:56;2.00;99.90
30381;DHT22;17169;50.966;11.038;2023-04-03T06:48:59;2.10;99.90
30381;DHT22;17169;50.966;11.038;2023-04-03T06:52:03;2.20;99.90
30381;DHT22;17169;50.966;11.038;2023-04-03T06:55:06;2.40;99.90
30381;DHT22;17169;50.966;11.038;2023-04-03T06:58:09;2.40;99.90
30381;DHT22;17169;50.966;11.038;2023-04-03T07:01:13;2.40;99.90
30381;DHT22;17169;50.966;11.038;2023-04-03T07:04:16;2.60;99.90
30381;DHT22;17169;50.966;11.038;2023-04-03T07:07:20;2.70;99.90
30381;DHT22;17169;50.966;11.038;2023-04-03T07:10:23;2.80;99.90
30381;DHT22;17169;50.966;11.038;2023-04-03T07:13:25;2.90;99.90
30381;DHT22;17169;50.966;11.038;2023-04-03T07:16:28;2.90;99.90
30381;DHT22;17169;50.966;11.038;2023-04-03T07:19:32;2.90;99.90
30381;DHT22;17169;50.966;11.038;2023-04-03T07:22:35;3.00;99.90
30381;DHT22;17169;50.966;11.038;2023-04-03T07:28:49;3.10;99.90
30381;DHT22;17169;50.966;11.038;2023-04-03T07:31:51;3.00;99.90
30381;DHT22;17169;50.966;11.038;2023-04-03T07:34:54;3.10;99.90
30381;DHT22;17169;50.966;11.038;2023-04-03T07:37:57;3.10;99.90
30381;DHT22;17169;50.966;11.038;2023-04-03T07:41:00;3.10;99.90
30381;DHT22;17169;50.966;11.038;2023-04-03T07:44:02;3.20;99.90
30381;DHT22;17169;50.966;11.038;2023-04-03T07:47:05;3.20;99.90
30381;DHT22;17169;50.966;11.038;2023-04-03T07:50:08;3.10;99.90
30381;DHT22;17169;50.966;11.038;2023-04-03T07:53:12;3.20;99.90
30381;DHT22;17169;50.966;11.038;2023-04-03T07:56:15;3.30;99.90
30381;DHT22;17169;50.966;11.038;2023-04-03T07:59:18;3.30;99.90
30381;DHT22;17169;50.966;11.038;2023-04-03T08:02:20;3.30;99.90
30381;DHT22;17169;50.966;11.038;2023-04-03T08:05:23;3.30;99.90
30381;DHT22;17169;50.966;11.038;2023-04-03T08:08:27;3.30;99.90
30381;DHT22;17169;50.966;11.038;2023-04-03T08:11:31;3.50;99.90
30381;DHT22;17169;50.966;11.038;2023-04-03T08:14:33;3.60;99.90
30381;DHT22;17169;50.966;11.038;2023-04-03T08:17:36;3.60;99.90
30381;DHT22;17169;50.966;11.038;2023-04-03T08:20:39;3.70;99.50
30381;DHT22;17169;50.966;11.038;2023-04-03T08:23:43;3.60;99.40
30381;DHT22;17169;50.966;11.038;2023-04-03T08:26:45;3.60;99.00
30381;DHT22;17169;50.966;11.038;2023-04-03T08:29:48;3.50;99.50
30381;DHT22;17169;50.966;11.038;2023-04-03T08:32:50;3.60;99.90
30381;DHT22;17169;50.966;11.038;2023-04-03T08:35:52;3.70;99.80
30381;DHT22;17169;50.966;11.038;2023-04-03T08:38:57;3.80;99.20
30381;DHT22;17169;50.966;11.038;2023-04-03T08:42:05;4.00;99.30
30381;DHT22;17169;50.966;11.038;2023-04-03T08:45:12;3.80;98.60
30381;DHT22;17169;50.966;11.038;2023-04-03T08:48:17;3.80;98.10
30381;DHT22;17169;50.966;11.038;2023-04-03T08:51:23;3.70;98.20
30381;DHT22;17169;50.966;11.038;2023-04-03T08:54:32;3.80;98.10
30381;DHT22;17169;50.966;11.038;2023-04-03T08:57:38;4.00;97.80
30381;DHT22;17169;50.966;11.038;2023-04-03T09:00:45;4.10;97.40
30381;DHT22;17169;50.966;11.038;2023-04-03T09:03:48;4.20;97.30
30381;DHT22;17169;50.966;11.038;2023-04-03T09:06:54;4.40;97.50
30381;DHT22;17169;50.966;11.038;2023-04-03T09:09:59;4.70;97.40
30381;DHT22;17169;50.966;11.038;2023-04-03T09:13:06;4.90;97.60
30381;DHT22;17169;50.966;11.038;2023-04-03T09:16:20;5.10;96.50
30381;DHT22;17169;50.966;11.038;2023-04-03T09:19:32;5.30;96.90
30381;DHT22;17169;50.966;11.038;2023-04-03T09:22:41;5.60;96.50
30381;DHT22;17169;50.966;11.038;2023-04-03T09:25:46;5.60;95.40
30381;DHT22;17169;50.966;11.038;2023-04-03T09:28:48;5.60;96.10
30381;DHT22;17169;50.966;11.038;2023-04-03T09:31:56;5.80;95.80
30381;DHT22;17169;50.966;11.038;2023-04-03T09:35:02;5.80;95.20
30381;DHT22;17169;50.966;11.038;2023-04-03T09:38:17;6.00;95.60
30381;DHT22;17169;50.966;11.038;2023-04-03T09:41:21;6.00;95.00
30381;DHT22;17169;50.966;11.038;2023-04-03T09:44:27;6.10;95.10
30381;DHT22;17169;50.966;11.038;2023-04-03T09:47:31;6.20;94.90
30381;DHT22;17169;50.966;11.038;2023-04-03T09:50:35;6.30;94.40
30381;DHT22;17169;50.966;11.038;2023-04-03T09:53:40;6.30;94.00
30381;DHT22;17169;50.966;11.038;2023-04-03T09:56:49;6.40;94.30
30381;DHT22;17169;50.966;11.038;2023-04-03T09:59:57;6.40;93.80
30381;DHT22;17169;50.966;11.038;2023-04-03T10:03:01;6.30;92.60
30381;DHT22;17169;50.966;11.038;2023-04-03T10:06:04;6.30;93.00
30381;DHT22;17169;50.966;11.038;2023-04-03T10:09:25;6.30;93.60
30381;DHT22;17169;50.966;11.038;2023-04-03T10:12:29;6.10;94.10
30381;DHT22;17169;50.966;11.038;2023-04-03T10:15:38;5.90;93.40
30381;DHT22;17169;50.966;11.038;2023-04-03T10:18:44;5.70;93.90
30381;DHT22;17169;50.966;11.038;2023-04-03T10:21:53;5.70;94.10
30381;DHT22;17169;50.966;11.038;2023-04-03T10:25:03;5.60;93.60
30381;DHT22;17169;50.966;11.038;2023-04-03T10:28:11;5.60;93.20
30381;DHT22;17169;50.966;11.038;2023-04-03T10:31:21;5.40;93.50
30381;DHT22;17169;50.966;11.038;2023-04-03T10:34:31;5.40;93.80
30381;DHT22;17169;50.966;11.038;2023-04-03T10:37:46;5.40;94.30
30381;DHT22;17169;50.966;11.038;2023-04-03T10:40:57;5.60;93.50
30381;DHT22;17169;50.966;11.038;2023-04-03T10:44:11;5.60;93.10
30381;DHT22;17169;50.966;11.038;2023-04-03T10:47:20;5.60;93.50
30381;DHT22;17169;50.966;11.038;2023-04-03T10:50:39;5.60;93.30
30381;DHT22;17169;50.966;11.038;2023-04-03T10:53:52;5.60;93.50
30381;DHT22;17169;50.966;11.038;2023-04-03T10:57:01;5.60;93.70
30381;DHT22;17169;50.966;11.038;2023-04-03T11:00:14;5.60;93.70
30381;DHT22;17169;50.966;11.038;2023-04-03T11:03:27;5.50;93.40
30381;DHT22;17169;50.966;11.038;2023-04-03T11:06:35;5.60;93.90
30381;DHT22;17169;50.966;11.038;2023-04-03T11:09:41;5.60;93.50
30381;DHT22;17169;50.966;11.038;2023-04-03T11:12:47;5.70;93.50
30381;DHT22;17169;50.966;11.038;2023-04-03T11:15:53;5.80;93.60
30381;DHT22;17169;50.966;11.038;2023-04-03T11:18:56;5.90;93.50
30381;DHT22;17169;50.966;11.038;2023-04-03T11:22:04;6.00;93.10
30381;DHT22;17169;50.966;11.038;2023-04-03T11:25:17;5.90;92.60
30381;DHT22;17169;50.966;11.038;2023-04-03T11:28:22;5.90;92.60
30381;DHT22;17169;50.966;11.038;2023-04-03T11:31:38;6.00;93.40
30381;DHT22;17169;50.966;11.038;2023-04-03T11:34:46;6.30;93.70
30381;DHT22;17169;50.966;11.038;2023-04-03T11:37:50;6.80;93.40
30381;DHT22;17169;50.966;11.038;2023-04-03T11:40:54;7.10;92.50
30381;DHT22;17169;50.966;11.038;2023-04-03T11:44:00;7.30;92.60
30381;DHT22;17169;50.966;11.038;2023-04-03T11:47:04;7.40;92.60
30381;DHT22;17169;50.966;11.038;2023-04-03T11:50:38;7.50;92.20
30381;DHT22;17169;50.966;11.038;2023-04-03T11:53:41;7.40;92.30
30381;DHT22;17169;50.966;11.038;2023-04-03T11:56:43;7.30;90.90
30381;DHT22;17169;50.966;11.038;2023-04-03T11:59:46;7.00;91.20
30381;DHT22;17169;50.966;11.038;2023-04-03T12:02:51;7.00;91.70
30381;DHT22;17169;50.966;11.038;2023-04-03T12:05:54;7.10;92.10
30381;DHT22;17169;50.966;11.038;2023-04-03T12:08:58;7.30;91.30
30381;DHT22;17169;50.966;11.038;2023-04-03T12:15:52;8.00;90.40
30381;DHT22;17169;50.966;11.038;2023-04-03T12:19:01;8.10;90.40
30381;DHT22;17169;50.966;11.038;2023-04-03T12:22:11;8.00;90.60
30381;DHT22;17169;50.966;11.038;2023-04-03T12:25:47;7.80;91.60
30381;DHT22;17169;50.966;11.038;2023-04-03T12:28:51;8.20;91.50
30381;DHT22;17169;50.966;11.038;2023-04-03T12:32:04;8.20;90.90
30381;DHT22;17169;50.966;11.038;2023-04-03T12:35:17;8.10;90.70
30381;DHT22;17169;50.966;11.038;2023-04-03T12:38:41;8.10;90.40
30381;DHT22;17169;50.966;11.038;2023-04-03T12:41:53;8.20;89.10
30381;DHT22;17169;50.966;11.038;2023-04-03T12:45:03;8.30;89.80
30381;DHT22;17169;50.966;11.038;2023-04-03T12:48:15;8.40;89.30
30381;DHT22;17169;50.966;11.038;2023-04-03T12:51:22;8.70;87.20
30381;DHT22;17169;50.966;11.038;2023-04-03T12:54:32;9.00;85.00
30381;DHT22;17169;50.966;11.038;2023-04-03T12:57:37;9.00;84.90
30381;DHT22;17169;50.966;11.038;2023-04-03T13:00:39;9.10;83.10
30381;DHT22;17169;50.966;11.038;2023-04-03T13:03:44;9.50;86.50
30381;DHT22;17169;50.966;11.038;2023-04-03T13:06:49;9.80;84.50
30381;DHT22;17169;50.966;11.038;2023-04-03T13:09:57;9.80;82.70
30381;DHT22;17169;50.966;11.038;2023-04-03T13:13:08;9.60;83.10
30381;DHT22;17169;50.966;11.038;2023-04-03T13:16:11;9.60;83.80
30381;DHT22;17169;50.966;11.038;2023-04-03T13:19:16;9.20;83.20
30381;DHT22;17169;50.966;11.038;2023-04-03T13:22:27;9.40;84.70
30381;DHT22;17169;50.966;11.038;2023-04-03T13:25:33;9.90;82.20
30381;DHT22;17169;50.966;11.038;2023-04-03T13:28:38;10.40;82.40
30381;DHT22;17169;50.966;11.038;2023-04-03T13:31:41;10.60;81.60
30381;DHT22;17169;50.966;11.038;2023-04-03T13:34:43;10.20;80.90
30381;DHT22;17169;50.966;11.038;2023-04-03T13:37:56;10.10;81.60
30381;DHT22;17169;50.966;11.038;2023-04-03T13:41:00;10.00;81.40
30381;DHT22;17169;50.966;11.038;2023-04-03T13:44:23;9.50;81.30
30381;DHT22;17169;50.966;11.038;2023-04-03T13:47:38;9.00;81.00
30381;DHT22;17169;50.966;11.038;2023-04-03T13:50:53;9.40;81.70
30381;DHT22;17169;50.966;11.038;2023-04-03T13:54:00;10.60;81.70
30381;DHT22;17169;50.966;11.038;2023-04-03T13:57:03;11.40;79.50
30381;DHT22;17169;50.966;11.038;2023-04-03T14:00:32;11.60;78.00
30381;DHT22;17169;50.966;11.038;2023-04-03T14:03:41;12.90;77.10
30381;DHT22;17169;50.966;11.038;2023-04-03T14:06:44;13.20;75.40
30381;DHT22;17169;50.966;11.038;2023-04-03T14:09:48;12.60;73.80
30381;DHT22;17169;50.966;11.038;2023-04-03T14:12:50;11.80;72.20
30381;DHT22;17169;50.966;11.038;2023-04-03T14:15:53;11.20;72.60
30381;DHT22;17169;50.966;11.038;2023-04-03T14:18:55;11.60;76.00
30381;DHT22;17169;50.966;11.038;2023-04-03T14:21:59;11.60;75.70
30381;DHT22;17169;50.966;11.038;2023-04-03T14:25:04;11.10;76.10
30381;DHT22;17169;50.966;11.038;2023-04-03T14:28:15;10.30;76.30
30381;DHT22;17169;50.966;11.038;2023-04-03T14:31:19;9.70;77.40
30381;DHT22;17169;50.966;11.038;2023-04-03T14:34:22;9.40;77.80
30381;DHT22;17169;50.966;11.038;2023-04-03T14:37:26;9.00;77.90
30381;DHT22;17169;50.966;11.038;2023-04-03T14:40:31;8.70;77.30
30381;DHT22;17169;50.966;11.038;2023-04-03T14:43:33;9.80;78.90
30381;DHT22;17169;50.966;11.038;2023-04-03T14:46:38;10.90;76.60
30381;DHT22;17169;50.966;11.038;2023-04-03T14:49:41;10.70;75.50
30381;DHT22;17169;50.966;11.038;2023-04-03T14:52:44;10.20;76.30
30381;DHT22;17169;50.966;11.038;2023-04-03T14:55:49;9.60;77.00
30381;DHT22;17169;50.966;11.038;2023-04-03T14:58:55;9.10;77.10
30381;DHT22;17169;50.966;11.038;2023-04-03T15:01:57;8.80;77.70
30381;DHT22;17169;50.966;11.038;2023-04-03T15:05:01;8.80;77.90
30381;DHT22;17169;50.966;11.038;2023-04-03T15:08:05;9.50;78.70
30381;DHT22;17169;50.966;11.038;2023-04-03T15:11:09;12.50;76.00
30381;DHT22;17169;50.966;11.038;2023-04-03T15:14:11;15.00;72.10
30381;DHT22;17169;50.966;11.038;2023-04-03T15:17:16;14.30;69.60
30381;DHT22;17169;50.966;11.038;2023-04-03T15:20:22;13.50;67.70
30381;DHT22;17169;50.966;11.038;2023-04-03T15:23:24;12.70;68.30
30381;DHT22;17169;50.966;11.038;2023-04-03T15:26:29;13.70;71.20
30381;DHT22;17169;50.966;11.038;2023-04-03T15:29:32;14.40;68.90
30381;DHT22;17169;50.966;11.038;2023-04-03T15:32:34;13.40;67.80
30381;DHT22;17169;50.966;11.038;2023-04-03T15:35:37;12.50;68.40
30381;DHT22;17169;50.966;11.038;2023-04-03T15:38:39;11.70;68.60
30381;DHT22;17169;50.966;11.038;2023-04-03T15:41:43;11.10;70.80
30381;DHT22;17169;50.966;11.038;2023-04-03T15:44:46;10.30;71.90
30381;DHT22;17169;50.966;11.038;2023-04-03T15:47:48;9.60;73.40
30381;DHT22;17169;50.966;11.038;2023-04-03T15:50:51;9.20;74.70
30381;DHT22;17169;50.966;11.038;2023-04-03T15:53:53;8.80;75.20
30381;DHT22;17169;50.966;11.038;2023-04-03T15:56:57;8.40;76.20
30381;DHT22;17169;50.966;11.038;2023-04-03T15:59:59;7.90;75.50
30381;DHT22;17169;50.966;11.038;2023-04-03T16:03:05;7.50;77.10
30381;DHT22;17169;50.966;11.038;2023-04-03T16:06:08;7.30;78.20
30381;DHT22;17169;50.966;11.038;2023-04-03T16:09:10;7.10;78.70
30381;DHT22;17169;50.966;11.038;2023-04-03T16:12:15;6.90;80.70
30381;DHT22;17169;50.966;11.038;2023-04-03T16:15:17;6.70;81.70
30381;DHT22;17169;50.966;11.038;2023-04-03T16:18:19;6.60;82.40
30381;DHT22;17169;50.966;11.038;2023-04-03T16:21:22;6.50;82.50
30381;DHT22;17169;50.966;11.038;2023-04-03T16:24:25;6.50;82.40
30381;DHT22;17169;50.966;11.038;2023-04-03T16:27:29;6.50;81.60
30381;DHT22;17169;50.966;11.038;2023-04-03T16:30:32;6.50;80.90
30381;DHT22;17169;50.966;11.038;2023-04-03T16:33:35;6.50;79.00
30381;DHT22;17169;50.966;11.038;2023-04-03T16:36:37;6.40;80.40
30381;DHT22;17169;50.966;11.038;2023-04-03T16:39:40;6.30;81.80
30381;DHT22;17169;50.966;11.038;2023-04-03T16:42:44;6.30;83.00
30381;DHT22;17169;50.966;11.038;2023-04-03T16:45:46;6.20;83.70
30381;DHT22;17169;50.966;11.038;2023-04-03T16:48:49;6.20;83.80
30381;DHT22;17169;50.966;11.038;2023-04-03T16:51:51;6.00;84.60
30381;DHT22;17169;50.966;11.038;2023-04-03T16:54:54;5.90;85.20
30381;DHT22;17169;50.966;11.038;2023-04-03T16:57:57;5.90;85.00
30381;DHT22;17169;50.966;11.038;2023-04-03T17:01:09;5.80;85.00
30381;DHT22;17169;50.966;11.038;2023-04-03T17:04:11;5.80;85.50
30381;DHT22;17169;50.966;11.038;2023-04-03T17:07:14;5.70;83.70
30381;DHT22;17169;50.966;11.038;2023-04-03T17:10:17;5.60;84.10
30381;DHT22;17169;50.966;11.038;2023-04-03T17:13:20;5.50;84.30
30381;DHT22;17169;50.966;11.038;2023-04-03T17:16:23;5.50;83.70
30381;DHT22;17169;50.966;11.038;2023-04-03T17:19:27;5.40;84.20
30381;DHT22;17169;50.966;11.038;2023-04-03T17:22:29;5.30;84.10
30381;DHT22;17169;50.966;11.038;2023-04-03T17:25:33;5.30;84.10
30381;DHT22;17169;50.966;11.038;2023-04-03T17:28:36;5.20;84.70
30381;DHT22;17169;50.966;11.038;2023-04-03T17:31:40;5.20;84.90
30381;DHT22;17169;50.966;11.038;2023-04-03T17:34:45;5.10;84.10
30381;DHT22;17169;50.966;11.038;2023-04-03T17:37:48;5.10;84.20
30381;DHT22;17169;50.966;11.038;2023-04-03T17:40:50;5.00;85.30
30381;DHT22;17169;50.966;11.038;2023-04-03T17:43:54;4.90;86.00
30381;DHT22;17169;50.966;11.038;2023-04-03T17:46:57;4.90;86.20
30381;DHT22;17169;50.966;11.038;2023-04-03T17:49:59;4.80;87.00
30381;DHT22;17169;50.966;11.038;2023-04-03T17:53:01;4.80;87.60
30381;DHT22;17169;50.966;11.038;2023-04-03T17:56:08;4.80;86.90
30381;DHT22;17169;50.966;11.038;2023-04-03T17:59:12;4.70;87.70
30381;DHT22;17169;50.966;11.038;2023-04-03T18:02:14;4.70;87.80
30381;DHT22;17169;50.966;11.038;2023-04-03T18:05:16;4.70;86.80
30381;DHT22;17169;50.966;11.038;2023-04-03T18:08:19;4.70;86.80
30381;DHT22;17169;50.966;11.038;2023-04-03T18:11:24;4.70;87.10
30381;DHT22;17169;50.966;11.038;2023-04-03T18:14:29;4.60;87.60
30381;DHT22;17169;50.966;11.038;2023-04-03T18:17:33;4.70;87.60
30381;DHT22;17169;50.966;11.038;2023-04-03T18:20:36;4.70;88.30
30381;DHT22;17169;50.966;11.038;2023-04-03T18:23:40;4.60;87.90
30381;DHT22;17169;50.966;11.038;2023-04-03T18:26:46;4.60;87.60
30381;DHT22;17169;50.966;11.038;2023-04-03T18:29:51;4.60;87.80
30381;DHT22;17169;50.966;11.038;2023-04-03T18:32:54;4.60;88.50
30381;DHT22;17169;50.966;11.038;2023-04-03T18:35:56;4.60;89.10
30381;DHT22;17169;50.966;11.038;2023-04-03T18:38:58;4.60;87.20
30381;DHT22;17169;50.966;11.038;2023-04-03T18:42:05;4.50;88.40
30381;DHT22;17169;50.966;11.038;2023-04-03T18:45:12;4.50;89.70
30381;DHT22;17169;50.966;11.038;2023-04-03T18:48:17;4.50;90.30
30381;DHT22;17169;50.966;11.038;2023-04-03T18:51:21;4.50;90.30
30381;DHT22;17169;50.966;11.038;2023-04-03T18:54:23;4.40;86.50
30381;DHT22;17169;50.966;11.038;2023-04-03T18:57:25;4.40;86.10
30381;DHT22;17169;50.966;11.038;2023-04-03T19:00:29;4.40;86.50
30381;DHT22;17169;50.966;11.038;2023-04-03T19:03:32;4.40;86.60
30381;DHT22;17169;50.966;11.038;2023-04-03T19:06:37;4.40;87.30
30381;DHT22;17169;50.966;11.038;2023-04-03T19:09:39;4.30;87.40
30381;DHT22;17169;50.966;11.038;2023-04-03T19:12:42;4.40;87.70
30381;DHT22;17169;50.966;11.038;2023-04-03T19:15:47;4.40;87.60
30381;DHT22;17169;50.966;11.038;2023-04-03T19:18:50;4.40;87.90
30381;DHT22;17169;50.966;11.038;2023-04-03T19:21:53;4.40;88.80
30381;DHT22;17169;50.966;11.038;2023-04-03T19:24:55;4.40;89.20
30381;DHT22;17169;50.966;11.038;2023-04-03T19:27:58;4.40;89.20
30381;DHT22;17169;50.966;11.038;2023-04-03T19:31:02;4.30;88.90
30381;DHT22;17169;50.966;11.038;2023-04-03T19:34:11;4.30;89.00